sensor_id;sensor_type;location;lat;lon;timestamp;pressure;altitude;pressure_sealevel;temperature;humidity
21869;BME280;11099;41.564;23.296;2023-06-22T00:00:46;97789.59;;;24.49;76.78
21869;BME280;11099;41.564;23.296;2023-06-22T00:03:12;97807.09;;;24.27;77.48
21869;BME280;11099;41.564;23.296;2023-06-22T00:05:37;97877.84;;;24.73;78.08
21869;BME280;11099;41.564;23.296;2023-06-22T00:08:03;97877.03;;;24.83;77.10
21869;BME280;11099;41.564;23.296;2023-06-22T00:10:30;97824.97;;;24.49;76.72
21869;BME280;11099;41.564;23.296;2023-06-22T00:12:55;97818.38;;;24.18;78.98
21869;BME280;11099;41.564;23.296;2023-06-22T00:15:21;97826.13;;;24.02;79.82
21869;BME280;11099;41.564;23.296;2023-06-22T00:17:46;97882.91;;;24.39;80.03
21869;BME280;11099;41.564;23.296;2023-06-22T00:20:12;97783.28;;;23.56;79.38
21869;BME280;11099;41.564;23.296;2023-06-22T00:22:39;97903.53;;;24.47;78.08
21869;BME280;11099;41.564;23.296;2023-06-22T00:25:08;97775.16;;;23.59;77.67
21869;BME280;11099;41.564;23.296;2023-06-22T00:27:34;97845.59;;;24.50;76.74
21869;BME280;11099;41.564;23.296;2023-06-22T00:29:59;97789.88;;;23.55;79.45
21869;BME280;11099;41.564;23.296;2023-06-22T00:32:25;97796.09;;;23.59;78.65
21869;BME280;11099;41.564;23.296;2023-06-22T00:34:50;97729.63;;;23.21;78.38
21869;BME280;11099;41.564;23.296;2023-06-22T00:37:16;97900.41;;;24.77;76.93
21869;BME280;11099;41.564;23.296;2023-06-22T00:39:42;97863.06;;;24.38;76.74
21869;BME280;11099;41.564;23.296;2023-06-22T00:42:08;97791.09;;;23.64;77.81
21869;BME280;11099;41.564;23.296;2023-06-22T00:44:35;97831.56;;;24.09;77.26
21869;BME280;11099;41.564;23.296;2023-06-22T00:47:00;97870.81;;;24.18;77.87
21869;BME280;11099;41.564;23.296;2023-06-22T00:49:26;97844.38;;;23.98;76.50
21869;BME280;11099;41.564;23.296;2023-06-22T00:51:52;97863.41;;;23.98;78.04
21869;BME280;11099;41.564;23.296;2023-06-22T00:54:18;97845.53;;;24.04;75.96
21869;BME280;11099;41.564;23.296;2023-06-22T00:56:58;97876.63;;;24.17;75.69
21869;BME280;11099;41.564;23.296;2023-06-22T00:59:24;97821.41;;;23.84;74.75
21869;BME280;11099;41.564;23.296;2023-06-22T01:01:51;97847.88;;;23.98;76.10
21869;BME280;11099;41.564;23.296;2023-06-22T01:04:17;97845.97;;;24.38;76.13
21869;BME280;11099;41.564;23.296;2023-06-22T01:06:54;97865.00;;;24.24;76.52
21869;BME280;11099;41.564;23.296;2023-06-22T01:09:32;97870.81;;;24.15;78.05
21869;BME280;11099;41.564;23.296;2023-06-22T01:12:02;97878.59;;;24.20;77.03
21869;BME280;11099;41.564;23.296;2023-06-22T01:14:40;97833.13;;;23.96;77.25
21869;BME280;11099;41.564;23.296;2023-06-22T01:17:08;97747.88;;;23.20;79.53
21869;BME280;11099;41.564;23.296;2023-06-22T01:19:49;97832.19;;;23.56;80.83
21869;BME280;11099;41.564;23.296;2023-06-22T01:22:26;97817.06;;;23.55;82.97
21869;BME280;11099;41.564;23.296;2023-06-22T01:27:39;97879.66;;;23.69;82.95
21869;BME280;11099;41.564;23.296;2023-06-22T01:30:11;97879.16;;;23.53;83.29
21869;BME280;11099;41.564;23.296;2023-06-22T01:32:40;97880.34;;;23.55;83.73
21869;BME280;11099;41.564;23.296;2023-06-22T01:35:07;97736.84;;;22.84;82.90
21869;BME280;11099;41.564;23.296;2023-06-22T01:37:35;97895.28;;;24.08;81.81
21869;BME280;11099;41.564;23.296;2023-06-22T01:40:02;97887.50;;;24.10;81.50
21869;BME280;11099;41.564;23.296;2023-06-22T01:42:30;97878.94;;;24.04;81.41
21869;BME280;11099;41.564;23.296;2023-06-22T01:44:57;97864.91;;;23.81;81.91
21869;BME280;11099;41.564;23.296;2023-06-22T01:47:24;97890.63;;;24.01;82.14
21869;BME280;11099;41.564;23.296;2023-06-22T01:49:51;97891.75;;;23.97;83.84
21869;BME280;11099;41.564;23.296;2023-06-22T01:52:17;97872.63;;;23.64;85.23
21869;BME280;11099;41.564;23.296;2023-06-22T01:54:43;97844.59;;;23.46;85.82
21869;BME280;11099;41.564;23.296;2023-06-22T01:57:08;97870.25;;;23.56;85.28
21869;BME280;11099;41.564;23.296;2023-06-22T01:59:42;97864.34;;;23.39;86.89
21869;BME280;11099;41.564;23.296;2023-06-22T02:02:11;97893.13;;;23.51;87.98
21869;BME280;11099;41.564;23.296;2023-06-22T02:04:44;97895.06;;;23.51;88.31
21869;BME280;11099;41.564;23.296;2023-06-22T02:07:14;97841.53;;;23.62;84.57
21869;BME280;11099;41.564;23.296;2023-06-22T02:09:44;97852.69;;;23.39;86.75
21869;BME280;11099;41.564;23.296;2023-06-22T02:12:11;97900.94;;;23.60;86.85
21869;BME280;11099;41.564;23.296;2023-06-22T02:14:38;97836.84;;;23.52;85.89
21869;BME280;11099;41.564;23.296;2023-06-22T02:17:04;97864.34;;;23.36;86.84
21869;BME280;11099;41.564;23.296;2023-06-22T02:19:36;97829.22;;;22.95;88.80
21869;BME280;11099;41.564;23.296;2023-06-22T02:22:03;97894.28;;;23.50;87.76
21869;BME280;11099;41.564;23.296;2023-06-22T02:24:30;97871.41;;;23.55;86.54
21869;BME280;11099;41.564;23.296;2023-06-22T02:27:01;97865.34;;;23.03;90.59
21869;BME280;11099;41.564;23.296;2023-06-22T02:29:28;97840.59;;;23.15;89.51
21869;BME280;11099;41.564;23.296;2023-06-22T02:31:54;97852.00;;;23.56;87.91
21869;BME280;11099;41.564;23.296;2023-06-22T02:34:21;97918.59;;;24.09;85.52
21869;BME280;11099;41.564;23.296;2023-06-22T02:36:48;97894.25;;;23.43;87.54
21869;BME280;11099;41.564;23.296;2023-06-22T02:39:22;97925.19;;;24.04;85.77
21869;BME280;11099;41.564;23.296;2023-06-22T02:41:49;97887.84;;;23.80;87.03
21869;BME280;11099;41.564;23.296;2023-06-22T02:44:15;97876.13;;;23.65;86.75
21869;BME280;11099;41.564;23.296;2023-06-22T02:46:40;97853.84;;;23.34;86.84
21869;BME280;11099;41.564;23.296;2023-06-22T02:49:06;97842.38;;;22.90;87.75
21869;BME280;11099;41.564;23.296;2023-06-22T02:51:33;97941.38;;;23.06;91.49
21869;BME280;11099;41.564;23.296;2023-06-22T02:54:01;97886.34;;;23.17;89.96
21869;BME280;11099;41.564;23.296;2023-06-22T02:56:28;97837.47;;;23.17;88.13
21869;BME280;11099;41.564;23.296;2023-06-22T02:58:56;97940.28;;;23.18;91.65
21869;BME280;11099;41.564;23.296;2023-06-22T03:01:29;97942.53;;;23.67;89.18
21869;BME280;11099;41.564;23.296;2023-06-22T03:03:58;97951.22;;;24.05;86.89
21869;BME280;11099;41.564;23.296;2023-06-22T03:06:24;97907.59;;;23.73;87.24
21869;BME280;11099;41.564;23.296;2023-06-22T03:08:59;97928.31;;;24.17;85.22
21869;BME280;11099;41.564;23.296;2023-06-22T03:11:25;97952.13;;;24.41;83.53
21869;BME280;11099;41.564;23.296;2023-06-22T03:13:50;97864.19;;;23.98;84.07
21869;BME280;11099;41.564;23.296;2023-06-22T03:16:18;97867.13;;;23.54;84.39
21869;BME280;11099;41.564;23.296;2023-06-22T03:18:44;97835.94;;;23.16;85.27
21869;BME280;11099;41.564;23.296;2023-06-22T03:21:10;97923.81;;;23.52;86.40
21869;BME280;11099;41.564;23.296;2023-06-22T03:23:36;97935.53;;;22.56;91.44
21869;BME280;11099;41.564;23.296;2023-06-22T03:26:02;97948.44;;;23.18;90.37
21869;BME280;11099;41.564;23.296;2023-06-22T03:28:29;97876.91;;;22.45;89.53
21869;BME280;11099;41.564;23.296;2023-06-22T03:30:57;97926.72;;;22.67;91.89
21869;BME280;11099;41.564;23.296;2023-06-22T03:33:23;97957.75;;;23.17;89.19
21869;BME280;11099;41.564;23.296;2023-06-22T03:35:49;97831.69;;;22.63;87.54
21869;BME280;11099;41.564;23.296;2023-06-22T03:38:16;97840.81;;;22.37;91.36
21869;BME280;11099;41.564;23.296;2023-06-22T03:40:42;97953.25;;;23.43;89.66
21869;BME280;11099;41.564;23.296;2023-06-22T03:43:08;97925.47;;;22.57;93.13
21869;BME280;11099;41.564;23.296;2023-06-22T03:45:33;97944.19;;;22.69;92.74
21869;BME280;11099;41.564;23.296;2023-06-22T03:48:00;97905.97;;;22.88;92.14
21869;BME280;11099;41.564;23.296;2023-06-22T03:50:27;97895.66;;;23.16;89.98
21869;BME280;11099;41.564;23.296;2023-06-22T03:52:52;97973.00;;;24.16;86.53
21869;BME280;11099;41.564;23.296;2023-06-22T03:55:21;97935.78;;;24.56;82.73
21869;BME280;11099;41.564;23.296;2023-06-22T03:57:47;97907.78;;;24.37;81.98
21869;BME280;11099;41.564;23.296;2023-06-22T04:00:13;97843.88;;;25.31;77.31
21869;BME280;11099;41.564;23.296;2023-06-22T04:02:38;97958.06;;;27.24;71.53
21869;BME280;11099;41.564;23.296;2023-06-22T04:05:04;97934.56;;;26.86;67.49
21869;BME280;11099;41.564;23.296;2023-06-22T04:07:30;97938.00;;;26.48;68.80
21869;BME280;11099;41.564;23.296;2023-06-22T04:09:56;97919.66;;;25.79;71.13
21869;BME280;11099;41.564;23.296;2023-06-22T04:12:21;97881.19;;;25.56;68.40
21869;BME280;11099;41.564;23.296;2023-06-22T04:14:47;97895.53;;;25.78;66.94
21869;BME280;11099;41.564;23.296;2023-06-22T04:17:13;97941.94;;;26.44;64.49
21869;BME280;11099;41.564;23.296;2023-06-22T04:19:39;97937.28;;;25.46;67.28
21869;BME280;11099;41.564;23.296;2023-06-22T04:22:05;97978.47;;;25.84;66.77
21869;BME280;11099;41.564;23.296;2023-06-22T04:24:33;97910.31;;;25.73;65.39
21869;BME280;11099;41.564;23.296;2023-06-22T04:26:58;97968.53;;;26.88;64.10
21869;BME280;11099;41.564;23.296;2023-06-22T04:29:29;97944.13;;;27.87;59.98
21869;BME280;11099;41.564;23.296;2023-06-22T04:31:56;97938.66;;;27.12;61.70
21869;BME280;11099;41.564;23.296;2023-06-22T04:34:24;97988.47;;;27.30;63.22
21869;BME280;11099;41.564;23.296;2023-06-22T04:36:56;98007.44;;;27.48;60.95
21869;BME280;11099;41.564;23.296;2023-06-22T04:39:21;97990.09;;;27.99;60.43
21869;BME280;11099;41.564;23.296;2023-06-22T04:41:47;97886.06;;;26.97;59.13
21869;BME280;11099;41.564;23.296;2023-06-22T04:44:13;98012.16;;;26.95;64.39
21869;BME280;11099;41.564;23.296;2023-06-22T04:46:39;97991.31;;;26.64;65.57
21869;BME280;11099;41.564;23.296;2023-06-22T04:49:08;97999.63;;;27.01;64.80
21869;BME280;11099;41.564;23.296;2023-06-22T04:51:41;97941.34;;;26.70;64.59
21869;BME280;11099;41.564;23.296;2023-06-22T04:54:07;97996.75;;;26.71;65.26
21869;BME280;11099;41.564;23.296;2023-06-22T04:56:33;97997.78;;;27.77;62.25
21869;BME280;11099;41.564;23.296;2023-06-22T04:58:59;97981.59;;;28.21;60.56
21869;BME280;11099;41.564;23.296;2023-06-22T05:01:25;97964.94;;;28.66;59.50
21869;BME280;11099;41.564;23.296;2023-06-22T05:03:51;97914.81;;;27.84;61.08
21869;BME280;11099;41.564;23.296;2023-06-22T05:06:26;97907.84;;;28.10;60.14
21869;BME280;11099;41.564;23.296;2023-06-22T05:08:57;97995.81;;;27.78;63.08
21869;BME280;11099;41.564;23.296;2023-06-22T05:11:28;97950.41;;;27.84;61.51
21869;BME280;11099;41.564;23.296;2023-06-22T05:13:54;97894.81;;;27.26;63.53
21869;BME280;11099;41.564;23.296;2023-06-22T05:16:20;98004.47;;;28.38;61.61
21869;BME280;11099;41.564;23.296;2023-06-22T05:18:55;97952.09;;;28.63;59.40
21869;BME280;11099;41.564;23.296;2023-06-22T05:21:26;97955.19;;;29.11;58.14
21869;BME280;11099;41.564;23.296;2023-06-22T05:23:56;98012.06;;;29.31;57.69
21869;BME280;11099;41.564;23.296;2023-06-22T05:26:26;97993.50;;;29.38;57.13
21869;BME280;11099;41.564;23.296;2023-06-22T05:28:51;97952.31;;;28.72;58.30
21869;BME280;11099;41.564;23.296;2023-06-22T05:31:17;97993.66;;;28.81;58.30
21869;BME280;11099;41.564;23.296;2023-06-22T05:33:46;97923.22;;;27.70;60.44
21869;BME280;11099;41.564;23.296;2023-06-22T05:36:12;98007.53;;;28.97;58.84
21869;BME280;11099;41.564;23.296;2023-06-22T05:38:38;97950.22;;;29.70;55.40
21869;BME280;11099;41.564;23.296;2023-06-22T05:41:04;97982.72;;;30.11;56.94
21869;BME280;11099;41.564;23.296;2023-06-22T05:43:30;97981.34;;;28.93;62.11
21869;BME280;11099;41.564;23.296;2023-06-22T05:45:55;98010.44;;;29.33;62.12
21869;BME280;11099;41.564;23.296;2023-06-22T05:48:21;97984.34;;;29.25;58.26
21869;BME280;11099;41.564;23.296;2023-06-22T05:50:46;97899.66;;;28.84;59.64
21869;BME280;11099;41.564;23.296;2023-06-22T05:53:12;97993.91;;;29.60;58.46
21869;BME280;11099;41.564;23.296;2023-06-22T05:55:37;97865.91;;;28.44;59.14
21869;BME280;11099;41.564;23.296;2023-06-22T05:58:03;97998.53;;;29.20;58.31
21869;BME280;11099;41.564;23.296;2023-06-22T06:00:29;97961.78;;;29.37;59.31
21869;BME280;11099;41.564;23.296;2023-06-22T06:02:54;97955.78;;;29.86;58.88
21869;BME280;11099;41.564;23.296;2023-06-22T06:05:20;98006.50;;;29.98;58.63
21869;BME280;11099;41.564;23.296;2023-06-22T06:07:46;97822.88;;;28.87;59.78
21869;BME280;11099;41.564;23.296;2023-06-22T06:10:12;97998.25;;;29.78;59.94
21869;BME280;11099;41.564;23.296;2023-06-22T06:12:37;97940.06;;;29.86;58.51
21869;BME280;11099;41.564;23.296;2023-06-22T06:15:04;97971.47;;;29.65;58.44
21869;BME280;11099;41.564;23.296;2023-06-22T06:17:30;97964.00;;;29.86;57.05
21869;BME280;11099;41.564;23.296;2023-06-22T06:19:55;97929.94;;;29.44;57.01
21869;BME280;11099;41.564;23.296;2023-06-22T06:22:21;97987.47;;;29.47;57.63
21869;BME280;11099;41.564;23.296;2023-06-22T06:24:49;97884.84;;;29.05;56.07
21869;BME280;11099;41.564;23.296;2023-06-22T06:27:15;98009.88;;;29.65;56.85
21869;BME280;11099;41.564;23.296;2023-06-22T06:29:43;98000.63;;;29.12;56.47
21869;BME280;11099;41.564;23.296;2023-06-22T06:32:11;97875.50;;;28.01;57.13
21869;BME280;11099;41.564;23.296;2023-06-22T06:34:36;97918.81;;;28.37;55.77
21869;BME280;11099;41.564;23.296;2023-06-22T06:37:02;97972.34;;;29.16;56.54
21869;BME280;11099;41.564;23.296;2023-06-22T06:39:27;97882.81;;;28.62;56.20
21869;BME280;11099;41.564;23.296;2023-06-22T06:41:53;97904.91;;;28.24;59.33
21869;BME280;11099;41.564;23.296;2023-06-22T06:44:18;97926.16;;;28.67;56.03
21869;BME280;11099;41.564;23.296;2023-06-22T06:46:43;97941.75;;;29.40;52.50
21869;BME280;11099;41.564;23.296;2023-06-22T06:49:09;97892.75;;;28.52;54.52
21869;BME280;11099;41.564;23.296;2023-06-22T06:51:34;97893.63;;;29.16;52.50
21869;BME280;11099;41.564;23.296;2023-06-22T06:54:00;97916.19;;;29.67;50.31
21869;BME280;11099;41.564;23.296;2023-06-22T06:56:25;97907.13;;;29.27;50.90
21869;BME280;11099;41.564;23.296;2023-06-22T06:58:51;97976.41;;;30.10;49.60
21869;BME280;11099;41.564;23.296;2023-06-22T07:01:17;98004.47;;;30.02;50.49
21869;BME280;11099;41.564;23.296;2023-06-22T07:03:42;97954.78;;;29.76;51.25
21869;BME280;11099;41.564;23.296;2023-06-22T07:06:08;98000.81;;;30.28;49.31
21869;BME280;11099;41.564;23.296;2023-06-22T07:08:34;97995.66;;;30.30;49.17
21869;BME280;11099;41.564;23.296;2023-06-22T07:11:01;97954.50;;;29.51;51.28
21869;BME280;11099;41.564;23.296;2023-06-22T07:13:27;97991.53;;;29.62;52.46
21869;BME280;11099;41.564;23.296;2023-06-22T07:15:52;97852.94;;;29.14;51.00
21869;BME280;11099;41.564;23.296;2023-06-22T07:18:18;97973.06;;;30.23;50.04
21869;BME280;11099;41.564;23.296;2023-06-22T07:20:43;97989.94;;;30.41;50.06
21869;BME280;11099;41.564;23.296;2023-06-22T07:23:09;97968.00;;;30.74;50.00
21869;BME280;11099;41.564;23.296;2023-06-22T07:25:34;97971.28;;;30.49;50.40
21869;BME280;11099;41.564;23.296;2023-06-22T07:28:02;97998.25;;;30.90;50.65
21869;BME280;11099;41.564;23.296;2023-06-22T07:30:29;97959.03;;;30.53;50.35
21869;BME280;11099;41.564;23.296;2023-06-22T07:32:56;97954.41;;;30.14;51.57
21869;BME280;11099;41.564;23.296;2023-06-22T07:35:22;97943.94;;;30.45;50.05
21869;BME280;11099;41.564;23.296;2023-06-22T07:37:47;97964.81;;;30.75;48.65
21869;BME280;11099;41.564;23.296;2023-06-22T07:40:13;97984.94;;;30.72;50.47
21869;BME280;11099;41.564;23.296;2023-06-22T07:42:38;97947.50;;;30.42;50.26
21869;BME280;11099;41.564;23.296;2023-06-22T07:45:04;97929.06;;;30.06;51.35
21869;BME280;11099;41.564;23.296;2023-06-22T07:47:31;97949.06;;;30.59;51.61
21869;BME280;11099;41.564;23.296;2023-06-22T07:50:00;97999.94;;;31.16;49.75
21869;BME280;11099;41.564;23.296;2023-06-22T07:52:26;97927.94;;;31.05;48.73
21869;BME280;11099;41.564;23.296;2023-06-22T07:54:52;97950.53;;;30.64;49.32
21869;BME280;11099;41.564;23.296;2023-06-22T07:57:18;97876.75;;;29.77;50.28
21869;BME280;11099;41.564;23.296;2023-06-22T07:59:44;97865.81;;;29.57;51.25
21869;BME280;11099;41.564;23.296;2023-06-22T08:02:09;97990.84;;;30.34;50.82
21869;BME280;11099;41.564;23.296;2023-06-22T08:04:35;97993.44;;;30.78;48.23
21869;BME280;11099;41.564;23.296;2023-06-22T08:07:01;97986.22;;;31.00;46.04
21869;BME280;11099;41.564;23.296;2023-06-22T08:09:31;97988.59;;;31.14;46.24
21869;BME280;11099;41.564;23.296;2023-06-22T08:11:57;97933.75;;;30.78;46.58
21869;BME280;11099;41.564;23.296;2023-06-22T08:14:25;97995.91;;;31.05;46.41
21869;BME280;11099;41.564;23.296;2023-06-22T08:16:50;97947.25;;;30.53;46.22
21869;BME280;11099;41.564;23.296;2023-06-22T08:19:17;97923.59;;;30.75;44.95
21869;BME280;11099;41.564;23.296;2023-06-22T08:21:45;97974.94;;;31.11;46.56
21869;BME280;11099;41.564;23.296;2023-06-22T08:24:14;97985.94;;;31.27;45.05
21869;BME280;11099;41.564;23.296;2023-06-22T08:26:41;97988.22;;;31.45;45.66
21869;BME280;11099;41.564;23.296;2023-06-22T08:29:13;97974.94;;;31.56;44.19
21869;BME280;11099;41.564;23.296;2023-06-22T08:31:41;97919.22;;;31.81;43.66
21869;BME280;11099;41.564;23.296;2023-06-22T08:34:10;97973.94;;;31.50;43.80
21869;BME280;11099;41.564;23.296;2023-06-22T08:36:39;97934.94;;;31.39;45.88
21869;BME280;11099;41.564;23.296;2023-06-22T08:39:07;97889.25;;;30.83;45.86
21869;BME280;11099;41.564;23.296;2023-06-22T08:41:33;97928.38;;;31.04;46.15
21869;BME280;11099;41.564;23.296;2023-06-22T08:43:59;97861.78;;;30.34;45.40
21869;BME280;11099;41.564;23.296;2023-06-22T08:46:25;97916.03;;;30.95;44.43
21869;BME280;11099;41.564;23.296;2023-06-22T08:48:56;97945.69;;;31.33;46.03
21869;BME280;11099;41.564;23.296;2023-06-22T08:51:23;97949.31;;;31.14;45.93
21869;BME280;11099;41.564;23.296;2023-06-22T08:53:48;97923.09;;;31.26;44.33
21869;BME280;11099;41.564;23.296;2023-06-22T08:56:14;97969.06;;;31.70;43.51
21869;BME280;11099;41.564;23.296;2023-06-22T08:58:39;97927.53;;;31.36;44.07
21869;BME280;11099;41.564;23.296;2023-06-22T09:01:05;97909.25;;;31.29;43.49
21869;BME280;11099;41.564;23.296;2023-06-22T09:03:30;97852.75;;;30.66;44.51
21869;BME280;11099;41.564;23.296;2023-06-22T09:05:58;97830.50;;;30.77;44.46
21869;BME280;11099;41.564;23.296;2023-06-22T09:08:23;97898.72;;;31.40;43.54
21869;BME280;11099;41.564;23.296;2023-06-22T09:10:49;97892.56;;;31.20;43.10
21869;BME280;11099;41.564;23.296;2023-06-22T09:13:14;97897.25;;;31.07;43.85
21869;BME280;11099;41.564;23.296;2023-06-22T09:15:40;97947.69;;;31.74;43.81
21869;BME280;11099;41.564;23.296;2023-06-22T09:18:05;97889.63;;;30.98;43.50
21869;BME280;11099;41.564;23.296;2023-06-22T09:20:31;97825.78;;;31.07;43.23
21869;BME280;11099;41.564;23.296;2023-06-22T09:22:57;97864.31;;;31.48;42.60
21869;BME280;11099;41.564;23.296;2023-06-22T09:25:23;97879.63;;;31.50;43.86
21869;BME280;11099;41.564;23.296;2023-06-22T09:27:48;97949.22;;;32.05;42.89
21869;BME280;11099;41.564;23.296;2023-06-22T09:30:22;97923.66;;;32.30;42.60
21869;BME280;11099;41.564;23.296;2023-06-22T09:32:49;97918.91;;;32.30;41.96
21869;BME280;11099;41.564;23.296;2023-06-22T09:35:14;97884.09;;;32.23;40.66
21869;BME280;11099;41.564;23.296;2023-06-22T09:37:40;97919.38;;;32.54;40.70
21869;BME280;11099;41.564;23.296;2023-06-22T09:40:07;97850.09;;;32.05;41.33
21869;BME280;11099;41.564;23.296;2023-06-22T09:42:36;97924.66;;;32.23;43.57
21869;BME280;11099;41.564;23.296;2023-06-22T09:45:02;97860.88;;;31.99;42.32
21869;BME280;11099;41.564;23.296;2023-06-22T09:47:29;97920.09;;;31.91;41.34
21869;BME280;11099;41.564;23.296;2023-06-22T09:49:55;97901.06;;;31.96;41.54
21869;BME280;11099;41.564;23.296;2023-06-22T09:52:21;97850.25;;;31.72;41.28
21869;BME280;11099;41.564;23.296;2023-06-22T09:54:46;97859.88;;;31.80;42.25
21869;BME280;11099;41.564;23.296;2023-06-22T09:57:12;97764.06;;;31.50;41.13
21869;BME280;11099;41.564;23.296;2023-06-22T09:59:38;97867.47;;;32.27;39.80
21869;BME280;11099;41.564;23.296;2023-06-22T10:02:06;97897.06;;;32.74;38.35
21869;BME280;11099;41.564;23.296;2023-06-22T10:04:34;97790.28;;;32.52;39.07
21869;BME280;11099;41.564;23.296;2023-06-22T10:07:00;97839.28;;;32.10;37.99
21869;BME280;11099;41.564;23.296;2023-06-22T10:09:26;97791.56;;;31.75;39.20
21869;BME280;11099;41.564;23.296;2023-06-22T10:11:52;97782.13;;;32.02;40.45
21869;BME280;11099;41.564;23.296;2023-06-22T10:14:17;97883.97;;;32.65;39.48
21869;BME280;11099;41.564;23.296;2023-06-22T10:16:43;97815.69;;;32.35;37.61
21869;BME280;11099;41.564;23.296;2023-06-22T10:19:08;97863.81;;;33.03;36.94
21869;BME280;11099;41.564;23.296;2023-06-22T10:21:34;97844.88;;;33.14;37.48
21869;BME280;11099;41.564;23.296;2023-06-22T10:24:00;97765.63;;;32.49;38.41
21869;BME280;11099;41.564;23.296;2023-06-22T10:26:32;97819.91;;;32.61;36.50
21869;BME280;11099;41.564;23.296;2023-06-22T10:28:58;97824.16;;;32.40;38.03
21869;BME280;11099;41.564;23.296;2023-06-22T10:31:24;97807.16;;;32.55;38.30
21869;BME280;11099;41.564;23.296;2023-06-22T10:33:49;97826.28;;;32.71;37.69
21869;BME280;11099;41.564;23.296;2023-06-22T10:36:15;97871.31;;;33.24;36.99
21869;BME280;11099;41.564;23.296;2023-06-22T10:38:40;97852.78;;;33.47;36.61
21869;BME280;11099;41.564;23.296;2023-06-22T10:41:06;97872.22;;;33.65;38.75
21869;BME280;11099;41.564;23.296;2023-06-22T10:43:33;97741.78;;;32.77;37.07
21869;BME280;11099;41.564;23.296;2023-06-22T10:46:02;97794.66;;;32.97;37.98
21869;BME280;11099;41.564;23.296;2023-06-22T10:48:30;97861.13;;;33.87;37.65
21869;BME280;11099;41.564;23.296;2023-06-22T10:50:56;97844.34;;;33.28;35.46
21869;BME280;11099;41.564;23.296;2023-06-22T10:53:23;97793.38;;;33.11;35.46
21869;BME280;11099;41.564;23.296;2023-06-22T10:55:51;97766.31;;;32.62;36.46
21869;BME280;11099;41.564;23.296;2023-06-22T10:58:21;97807.06;;;32.33;36.79
21869;BME280;11099;41.564;23.296;2023-06-22T11:00:47;97768.44;;;32.93;37.35
21869;BME280;11099;41.564;23.296;2023-06-22T11:03:13;97836.09;;;33.50;36.84
21869;BME280;11099;41.564;23.296;2023-06-22T11:05:39;97813.94;;;33.72;36.23
21869;BME280;11099;41.564;23.296;2023-06-22T11:08:07;97797.25;;;33.45;35.92
21869;BME280;11099;41.564;23.296;2023-06-22T11:10:35;97780.09;;;33.19;36.89
21869;BME280;11099;41.564;23.296;2023-06-22T11:13:03;97839.44;;;33.76;36.98
21869;BME280;11099;41.564;23.296;2023-06-22T11:15:37;97819.34;;;33.76;36.06
21869;BME280;11099;41.564;23.296;2023-06-22T11:18:04;97842.38;;;34.22;35.27
21869;BME280;11099;41.564;23.296;2023-06-22T11:20:31;97760.03;;;33.49;35.04
21869;BME280;11099;41.564;23.296;2023-06-22T11:22:58;97755.97;;;33.10;35.21
21869;BME280;11099;41.564;23.296;2023-06-22T11:25:25;97811.03;;;33.67;34.63
21869;BME280;11099;41.564;23.296;2023-06-22T11:27:51;97723.50;;;33.14;34.83
21869;BME280;11099;41.564;23.296;2023-06-22T11:30:18;97787.69;;;33.59;36.23
21869;BME280;11099;41.564;23.296;2023-06-22T11:32:45;97832.28;;;33.88;33.95
21869;BME280;11099;41.564;23.296;2023-06-22T11:35:12;97799.53;;;32.93;35.45
21869;BME280;11099;41.564;23.296;2023-06-22T11:37:41;97809.84;;;33.24;36.19
21869;BME280;11099;41.564;23.296;2023-06-22T11:40:13;97780.66;;;33.36;35.32
21869;BME280;11099;41.564;23.296;2023-06-22T11:42:39;97814.72;;;34.04;36.97
21869;BME280;11099;41.564;23.296;2023-06-22T11:45:06;97820.16;;;33.86;35.39
21869;BME280;11099;41.564;23.296;2023-06-22T11:47:31;97785.00;;;34.26;35.64
21869;BME280;11099;41.564;23.296;2023-06-22T11:50:02;97794.72;;;34.58;35.69
21869;BME280;11099;41.564;23.296;2023-06-22T11:52:31;97796.38;;;34.38;36.43
21869;BME280;11099;41.564;23.296;2023-06-22T11:55:10;97740.94;;;33.73;37.79
21869;BME280;11099;41.564;23.296;2023-06-22T11:57:38;97742.22;;;33.81;37.42
21869;BME280;11099;41.564;23.296;2023-06-22T12:00:04;97793.41;;;34.23;38.02
21869;BME280;11099;41.564;23.296;2023-06-22T12:02:45;97760.00;;;33.90;38.82
21869;BME280;11099;41.564;23.296;2023-06-22T12:05:11;97796.63;;;34.03;38.69
21869;BME280;11099;41.564;23.296;2023-06-22T12:07:37;97765.34;;;33.75;39.02
21869;BME280;11099;41.564;23.296;2023-06-22T12:10:03;97737.41;;;33.33;36.59
21869;BME280;11099;41.564;23.296;2023-06-22T12:12:29;97729.97;;;33.20;36.43
21869;BME280;11099;41.564;23.296;2023-06-22T12:14:55;97721.88;;;33.26;35.73
21869;BME280;11099;41.564;23.296;2023-06-22T12:17:20;97771.00;;;33.71;36.63
21869;BME280;11099;41.564;23.296;2023-06-22T12:19:46;97692.66;;;33.07;37.54
21869;BME280;11099;41.564;23.296;2023-06-22T12:22:11;97788.00;;;33.61;37.82
21869;BME280;11099;41.564;23.296;2023-06-22T12:24:37;97752.25;;;33.57;38.87
21869;BME280;11099;41.564;23.296;2023-06-22T12:27:02;97761.34;;;33.36;36.96
21869;BME280;11099;41.564;23.296;2023-06-22T12:29:28;97747.66;;;33.32;37.19
21869;BME280;11099;41.564;23.296;2023-06-22T12:31:54;97742.91;;;33.33;36.07
21869;BME280;11099;41.564;23.296;2023-06-22T12:34:20;97681.69;;;33.16;37.03
21869;BME280;11099;41.564;23.296;2023-06-22T12:36:45;97670.19;;;33.17;36.36
21869;BME280;11099;41.564;23.296;2023-06-22T12:39:13;97667.94;;;33.34;36.45
21869;BME280;11099;41.564;23.296;2023-06-22T12:41:40;97757.56;;;33.92;36.14
21869;BME280;11099;41.564;23.296;2023-06-22T12:44:05;97658.06;;;33.46;36.45
21869;BME280;11099;41.564;23.296;2023-06-22T12:46:31;97680.63;;;33.53;36.41
21869;BME280;11099;41.564;23.296;2023-06-22T12:49:03;97684.03;;;33.67;36.25
21869;BME280;11099;41.564;23.296;2023-06-22T12:51:29;97700.28;;;33.24;35.73